sensor_id;sensor_type;location;lat;lon;timestamp;P1;durP1;ratioP1;P2;durP2;ratioP2
57923;SDS011;43737;50.632;3.070;2022-08-19T00:00:06;27.70;;;16.92;;
57923;SDS011;43737;50.632;3.070;2022-08-19T00:02:33;30.75;;;16.95;;
57923;SDS011;43737;50.632;3.070;2022-08-19T00:04:59;29.13;;;16.80;;
57923;SDS011;43737;50.632;3.070;2022-08-19T00:07:25;28.35;;;16.73;;
57923;SDS011;43737;50.632;3.070;2022-08-19T00:09:51;25.85;;;17.13;;
57923;SDS011;43737;50.632;3.070;2022-08-19T00:12:17;25.10;;;16.85;;
57923;SDS011;43737;50.632;3.070;2022-08-19T00:14:43;32.20;;;17.25;;
57923;SDS011;43737;50.632;3.070;2022-08-19T00:17:09;25.42;;;16.20;;
57923;SDS011;43737;50.632;3.070;2022-08-19T00:19:36;29.60;;;16.80;;
57923;SDS011;43737;50.632;3.070;2022-08-19T00:22:02;25.90;;;15.95;;
57923;SDS011;43737;50.632;3.070;2022-08-19T00:24:28;29.65;;;16.42;;
57923;SDS011;43737;50.632;3.070;2022-08-19T00:26:55;25.38;;;13.82;;
57923;SDS011;43737;50.632;3.070;2022-08-19T00:29:22;31.23;;;15.23;;
57923;SDS011;43737;50.632;3.070;2022-08-19T00:31:49;25.95;;;14.55;;
57923;SDS011;43737;50.632;3.070;2022-08-19T00:34:18;30.48;;;16.30;;
57923;SDS011;43737;50.632;3.070;2022-08-19T00:36:44;29.63;;;15.23;;
57923;SDS011;43737;50.632;3.070;2022-08-19T00:39:11;26.48;;;14.38;;
57923;SDS011;43737;50.632;3.070;2022-08-19T00:41:37;24.40;;;13.65;;
57923;SDS011;43737;50.632;3.070;2022-08-19T00:44:10;21.38;;;13.85;;
57923;SDS011;43737;50.632;3.070;2022-08-19T00:46:38;28.08;;;13.50;;
57923;SDS011;43737;50.632;3.070;2022-08-19T00:49:27;27.80;;;14.15;;
57923;SDS011;43737;50.632;3.070;2022-08-19T00:51:53;34.92;;;14.50;;
57923;SDS011;43737;50.632;3.070;2022-08-19T00:54:20;29.85;;;13.60;;
57923;SDS011;43737;50.632;3.070;2022-08-19T00:56:46;23.48;;;13.55;;
57923;SDS011;43737;50.632;3.070;2022-08-19T00:59:13;26.88;;;13.73;;
57923;SDS011;43737;50.632;3.070;2022-08-19T01:01:40;21.98;;;13.60;;
57923;SDS011;43737;50.632;3.070;2022-08-19T01:04:07;27.42;;;13.20;;
57923;SDS011;43737;50.632;3.070;2022-08-19T01:06:35;17.42;;;11.88;;
57923;SDS011;43737;50.632;3.070;2022-08-19T01:09:02;23.25;;;12.25;;
57923;SDS011;43737;50.632;3.070;2022-08-19T01:11:29;23.05;;;10.23;;
57923;SDS011;43737;50.632;3.070;2022-08-19T01:13:57;19.63;;;11.02;;
57923;SDS011;43737;50.632;3.070;2022-08-19T01:16:24;17.88;;;9.65;;
57923;SDS011;43737;50.632;3.070;2022-08-19T01:18:50;19.30;;;10.07;;
57923;SDS011;43737;50.632;3.070;2022-08-19T01:21:37;20.38;;;9.93;;
57923;SDS011;43737;50.632;3.070;2022-08-19T01:24:06;21.13;;;9.27;;
57923;SDS011;43737;50.632;3.070;2022-08-19T01:26:37;17.48;;;9.43;;
57923;SDS011;43737;50.632;3.070;2022-08-19T01:29:03;19.85;;;8.88;;
57923;SDS011;43737;50.632;3.070;2022-08-19T01:31:29;14.02;;;8.15;;
57923;SDS011;43737;50.632;3.070;2022-08-19T01:33:56;16.45;;;8.93;;
57923;SDS011;43737;50.632;3.070;2022-08-19T01:36:32;15.73;;;8.13;;
57923;SDS011;43737;50.632;3.070;2022-08-19T01:38:59;17.80;;;8.50;;
57923;SDS011;43737;50.632;3.070;2022-08-19T01:41:25;16.75;;;8.45;;
57923;SDS011;43737;50.632;3.070;2022-08-19T01:43:52;16.20;;;7.95;;
57923;SDS011;43737;50.632;3.070;2022-08-19T01:46:18;18.08;;;8.45;;
57923;SDS011;43737;50.632;3.070;2022-08-19T01:48:44;19.80;;;7.82;;
57923;SDS011;43737;50.632;3.070;2022-08-19T01:51:11;17.80;;;8.38;;
57923;SDS011;43737;50.632;3.070;2022-08-19T01:53:37;14.43;;;7.43;;
57923;SDS011;43737;50.632;3.070;2022-08-19T01:56:03;17.83;;;7.88;;
57923;SDS011;43737;50.632;3.070;2022-08-19T01:58:37;21.88;;;7.95;;
57923;SDS011;43737;50.632;3.070;2022-08-19T02:01:04;19.85;;;7.63;;
57923;SDS011;43737;50.632;3.070;2022-08-19T02:03:30;16.05;;;7.45;;
57923;SDS011;43737;50.632;3.070;2022-08-19T02:05:57;13.27;;;7.25;;
57923;SDS011;43737;50.632;3.070;2022-08-19T02:08:24;13.52;;;7.30;;
57923;SDS011;43737;50.632;3.070;2022-08-19T02:10:50;17.55;;;7.07;;
57923;SDS011;43737;50.632;3.070;2022-08-19T02:13:17;15.50;;;6.80;;
57923;SDS011;43737;50.632;3.070;2022-08-19T02:15:43;12.68;;;7.20;;
57923;SDS011;43737;50.632;3.070;2022-08-19T02:18:09;12.60;;;6.47;;
57923;SDS011;43737;50.632;3.070;2022-08-19T02:20:36;15.13;;;6.95;;
57923;SDS011;43737;50.632;3.070;2022-08-19T02:23:03;14.15;;;7.25;;
57923;SDS011;43737;50.632;3.070;2022-08-19T02:25:29;14.00;;;6.35;;
57923;SDS011;43737;50.632;3.070;2022-08-19T02:27:55;14.57;;;6.50;;
57923;SDS011;43737;50.632;3.070;2022-08-19T02:30:21;19.08;;;7.35;;
57923;SDS011;43737;50.632;3.070;2022-08-19T02:32:47;13.10;;;7.03;;
57923;SDS011;43737;50.632;3.070;2022-08-19T02:35:13;15.40;;;6.47;;
57923;SDS011;43737;50.632;3.070;2022-08-19T02:37:40;18.35;;;7.40;;
57923;SDS011;43737;50.632;3.070;2022-08-19T02:40:26;20.08;;;7.10;;
57923;SDS011;43737;50.632;3.070;2022-08-19T02:42:52;14.35;;;6.65;;
57923;SDS011;43737;50.632;3.070;2022-08-19T02:45:19;14.63;;;6.40;;
57923;SDS011;43737;50.632;3.070;2022-08-19T02:47:45;15.35;;;6.50;;
57923;SDS011;43737;50.632;3.070;2022-08-19T02:50:11;12.90;;;6.20;;
57923;SDS011;43737;50.632;3.070;2022-08-19T02:52:38;13.88;;;6.68;;
57923;SDS011;43737;50.632;3.070;2022-08-19T02:55:04;18.70;;;7.03;;
57923;SDS011;43737;50.632;3.070;2022-08-19T02:57:30;10.95;;;6.15;;
57923;SDS011;43737;50.632;3.070;2022-08-19T02:59:57;14.18;;;6.40;;
57923;SDS011;43737;50.632;3.070;2022-08-19T03:02:23;18.65;;;7.63;;
57923;SDS011;43737;50.632;3.070;2022-08-19T03:04:49;11.40;;;6.18;;
57923;SDS011;43737;50.632;3.070;2022-08-19T03:07:16;15.15;;;7.38;;
57923;SDS011;43737;50.632;3.070;2022-08-19T03:09:43;17.10;;;7.40;;
57923;SDS011;43737;50.632;3.070;2022-08-19T03:12:09;16.90;;;7.53;;
57923;SDS011;43737;50.632;3.070;2022-08-19T03:14:36;16.17;;;6.53;;
57923;SDS011;43737;50.632;3.070;2022-08-19T03:17:02;15.15;;;7.38;;
57923;SDS011;43737;50.632;3.070;2022-08-19T03:19:29;12.80;;;6.78;;
57923;SDS011;43737;50.632;3.070;2022-08-19T03:21:56;16.55;;;7.03;;
57923;SDS011;43737;50.632;3.070;2022-08-19T03:24:22;13.98;;;6.90;;
57923;SDS011;43737;50.632;3.070;2022-08-19T03:26:50;14.05;;;7.07;;
57923;SDS011;43737;50.632;3.070;2022-08-19T03:29:19;12.05;;;7.18;;
57923;SDS011;43737;50.632;3.070;2022-08-19T03:31:46;20.38;;;8.25;;
57923;SDS011;43737;50.632;3.070;2022-08-19T03:34:19;21.92;;;8.73;;
57923;SDS011;43737;50.632;3.070;2022-08-19T03:36:46;17.42;;;8.05;;
57923;SDS011;43737;50.632;3.070;2022-08-19T03:39:12;19.23;;;7.90;;
57923;SDS011;43737;50.632;3.070;2022-08-19T03:41:39;16.83;;;8.20;;
57923;SDS011;43737;50.632;3.070;2022-08-19T03:44:06;22.63;;;9.30;;
57923;SDS011;43737;50.632;3.070;2022-08-19T03:46:33;20.33;;;8.52;;
57923;SDS011;43737;50.632;3.070;2022-08-19T03:49:00;22.48;;;8.75;;
57923;SDS011;43737;50.632;3.070;2022-08-19T03:51:33;18.38;;;8.73;;
57923;SDS011;43737;50.632;3.070;2022-08-19T03:54:00;17.30;;;8.82;;
57923;SDS011;43737;50.632;3.070;2022-08-19T03:56:27;20.77;;;8.00;;
57923;SDS011;43737;50.632;3.070;2022-08-19T03:58:53;20.20;;;8.82;;
57923;SDS011;43737;50.632;3.070;2022-08-19T04:01:21;23.42;;;9.20;;
57923;SDS011;43737;50.632;3.070;2022-08-19T04:03:47;22.80;;;9.15;;
57923;SDS011;43737;50.632;3.070;2022-08-19T04:06:21;20.13;;;8.95;;
57923;SDS011;43737;50.632;3.070;2022-08-19T04:08:48;22.92;;;9.40;;
57923;SDS011;43737;50.632;3.070;2022-08-19T04:11:19;19.05;;;9.50;;
57923;SDS011;43737;50.632;3.070;2022-08-19T04:13:46;26.05;;;10.20;;
57923;SDS011;43737;50.632;3.070;2022-08-19T04:16:12;31.75;;;10.43;;
57923;SDS011;43737;50.632;3.070;2022-08-19T04:18:40;22.52;;;9.75;;
57923;SDS011;43737;50.632;3.070;2022-08-19T04:21:06;20.33;;;9.30;;
57923;SDS011;43737;50.632;3.070;2022-08-19T04:23:34;28.20;;;9.55;;
57923;SDS011;43737;50.632;3.070;2022-08-19T04:26:03;21.65;;;9.85;;
57923;SDS011;43737;50.632;3.070;2022-08-19T04:28:29;24.35;;;10.68;;
57923;SDS011;43737;50.632;3.070;2022-08-19T04:30:55;17.33;;;9.07;;
57923;SDS011;43737;50.632;3.070;2022-08-19T04:33:23;24.10;;;9.70;;
57923;SDS011;43737;50.632;3.070;2022-08-19T04:35:50;20.02;;;10.77;;
57923;SDS011;43737;50.632;3.070;2022-08-19T04:38:18;33.03;;;10.77;;
57923;SDS011;43737;50.632;3.070;2022-08-19T04:40:46;22.20;;;9.77;;
57923;SDS011;43737;50.632;3.070;2022-08-19T04:43:31;19.63;;;9.88;;
57923;SDS011;43737;50.632;3.070;2022-08-19T04:45:57;21.65;;;9.18;;
57923;SDS011;43737;50.632;3.070;2022-08-19T04:48:24;21.13;;;9.57;;
57923;SDS011;43737;50.632;3.070;2022-08-19T04:50:53;23.10;;;10.63;;
57923;SDS011;43737;50.632;3.070;2022-08-19T04:53:29;21.63;;;9.40;;
57923;SDS011;43737;50.632;3.070;2022-08-19T04:55:56;19.40;;;9.57;;
57923;SDS011;43737;50.632;3.070;2022-08-19T04:58:23;21.85;;;10.38;;
57923;SDS011;43737;50.632;3.070;2022-08-19T05:00:49;16.92;;;9.77;;
57923;SDS011;43737;50.632;3.070;2022-08-19T05:03:15;21.77;;;10.75;;
57923;SDS011;43737;50.632;3.070;2022-08-19T05:05:42;19.65;;;10.48;;
57923;SDS011;43737;50.632;3.070;2022-08-19T05:08:08;20.55;;;11.00;;
57923;SDS011;43737;50.632;3.070;2022-08-19T05:10:35;18.88;;;11.55;;
57923;SDS011;43737;50.632;3.070;2022-08-19T05:13:02;18.00;;;10.68;;
57923;SDS011;43737;50.632;3.070;2022-08-19T05:15:28;25.45;;;11.45;;
57923;SDS011;43737;50.632;3.070;2022-08-19T05:17:57;20.02;;;11.88;;
57923;SDS011;43737;50.632;3.070;2022-08-19T05:20:41;22.60;;;12.02;;
57923;SDS011;43737;50.632;3.070;2022-08-19T05:23:26;22.17;;;12.07;;
57923;SDS011;43737;50.632;3.070;2022-08-19T05:25:52;24.25;;;12.00;;
57923;SDS011;43737;50.632;3.070;2022-08-19T05:28:19;17.25;;;11.45;;
57923;SDS011;43737;50.632;3.070;2022-08-19T05:30:45;24.25;;;12.32;;
57923;SDS011;43737;50.632;3.070;2022-08-19T05:33:11;20.85;;;11.60;;
57923;SDS011;43737;50.632;3.070;2022-08-19T05:35:38;19.17;;;11.63;;
57923;SDS011;43737;50.632;3.070;2022-08-19T05:38:06;17.45;;;11.55;;
57923;SDS011;43737;50.632;3.070;2022-08-19T05:40:38;25.83;;;12.60;;
57923;SDS011;43737;50.632;3.070;2022-08-19T05:43:05;20.70;;;13.15;;
57923;SDS011;43737;50.632;3.070;2022-08-19T05:45:32;23.67;;;13.18;;
57923;SDS011;43737;50.632;3.070;2022-08-19T05:47:58;22.48;;;12.23;;
57923;SDS011;43737;50.632;3.070;2022-08-19T05:50:24;19.38;;;11.52;;
57923;SDS011;43737;50.632;3.070;2022-08-19T05:52:51;18.98;;;11.05;;
57923;SDS011;43737;50.632;3.070;2022-08-19T05:55:17;16.83;;;11.05;;
57923;SDS011;43737;50.632;3.070;2022-08-19T05:57:45;17.85;;;11.15;;
57923;SDS011;43737;50.632;3.070;2022-08-19T06:00:11;19.02;;;11.65;;
57923;SDS011;43737;50.632;3.070;2022-08-19T06:02:37;23.17;;;13.15;;
57923;SDS011;43737;50.632;3.070;2022-08-19T06:05:04;21.63;;;13.25;;
57923;SDS011;43737;50.632;3.070;2022-08-19T06:07:34;24.50;;;12.43;;
57923;SDS011;43737;50.632;3.070;2022-08-19T06:10:00;24.15;;;13.30;;
57923;SDS011;43737;50.632;3.070;2022-08-19T06:12:30;25.98;;;13.80;;
57923;SDS011;43737;50.632;3.070;2022-08-19T06:14:59;26.70;;;12.45;;
57923;SDS011;43737;50.632;3.070;2022-08-19T06:17:25;22.90;;;12.30;;
57923;SDS011;43737;50.632;3.070;2022-08-19T06:19:51;21.67;;;11.63;;
57923;SDS011;43737;50.632;3.070;2022-08-19T06:22:17;25.30;;;11.50;;
57923;SDS011;43737;50.632;3.070;2022-08-19T06:24:43;20.02;;;10.32;;
57923;SDS011;43737;50.632;3.070;2022-08-19T06:27:09;20.73;;;9.15;;
57923;SDS011;43737;50.632;3.070;2022-08-19T06:29:35;18.75;;;9.23;;
57923;SDS011;43737;50.632;3.070;2022-08-19T06:32:02;19.17;;;9.45;;
57923;SDS011;43737;50.632;3.070;2022-08-19T06:34:30;18.52;;;8.13;;
57923;SDS011;43737;50.632;3.070;2022-08-19T06:36:57;14.20;;;8.60;;
57923;SDS011;43737;50.632;3.070;2022-08-19T06:39:27;14.23;;;7.95;;
57923;SDS011;43737;50.632;3.070;2022-08-19T06:41:55;13.40;;;7.43;;
57923;SDS011;43737;50.632;3.070;2022-08-19T06:44:21;12.18;;;7.65;;
57923;SDS011;43737;50.632;3.070;2022-08-19T06:46:48;10.80;;;5.72;;
57923;SDS011;43737;50.632;3.070;2022-08-19T06:49:15;15.25;;;5.95;;
57923;SDS011;43737;50.632;3.070;2022-08-19T06:51:42;13.07;;;6.45;;
57923;SDS011;43737;50.632;3.070;2022-08-19T06:54:08;11.63;;;6.82;;
57923;SDS011;43737;50.632;3.070;2022-08-19T06:56:34;14.80;;;6.70;;
57923;SDS011;43737;50.632;3.070;2022-08-19T06:59:02;11.88;;;5.38;;
57923;SDS011;43737;50.632;3.070;2022-08-19T07:01:28;15.65;;;6.07;;
57923;SDS011;43737;50.632;3.070;2022-08-19T07:03:54;14.55;;;5.78;;
57923;SDS011;43737;50.632;3.070;2022-08-19T07:06:21;13.32;;;5.40;;
57923;SDS011;43737;50.632;3.070;2022-08-19T07:08:47;20.23;;;5.53;;
57923;SDS011;43737;50.632;3.070;2022-08-19T07:11:14;13.40;;;6.00;;
57923;SDS011;43737;50.632;3.070;2022-08-19T07:13:42;15.25;;;5.25;;
57923;SDS011;43737;50.632;3.070;2022-08-19T07:16:10;13.02;;;5.70;;
57923;SDS011;43737;50.632;3.070;2022-08-19T07:18:37;8.32;;;4.03;;
57923;SDS011;43737;50.632;3.070;2022-08-19T07:21:04;8.38;;;3.85;;
57923;SDS011;43737;50.632;3.070;2022-08-19T07:23:31;9.63;;;3.70;;
57923;SDS011;43737;50.632;3.070;2022-08-19T07:25:57;8.30;;;4.20;;
57923;SDS011;43737;50.632;3.070;2022-08-19T07:28:23;9.07;;;3.92;;
57923;SDS011;43737;50.632;3.070;2022-08-19T07:30:49;4.22;;;3.00;;
57923;SDS011;43737;50.632;3.070;2022-08-19T07:33:16;4.78;;;2.75;;
57923;SDS011;43737;50.632;3.070;2022-08-19T07:35:43;6.28;;;2.72;;
57923;SDS011;43737;50.632;3.070;2022-08-19T07:38:09;7.53;;;2.63;;
57923;SDS011;43737;50.632;3.070;2022-08-19T07:40:35;9.57;;;2.70;;
57923;SDS011;43737;50.632;3.070;2022-08-19T07:43:01;6.13;;;2.65;;
57923;SDS011;43737;50.632;3.070;2022-08-19T07:45:27;3.65;;;1.80;;
57923;SDS011;43737;50.632;3.070;2022-08-19T07:47:54;5.75;;;1.83;;
57923;SDS011;43737;50.632;3.070;2022-08-19T07:50:20;3.92;;;1.50;;
57923;SDS011;43737;50.632;3.070;2022-08-19T07:52:47;6.85;;;1.50;;
57923;SDS011;43737;50.632;3.070;2022-08-19T07:55:14;2.10;;;1.30;;
57923;SDS011;43737;50.632;3.070;2022-08-19T07:57:41;3.28;;;1.10;;
57923;SDS011;43737;50.632;3.070;2022-08-19T08:00:07;4.40;;;1.50;;
57923;SDS011;43737;50.632;3.070;2022-08-19T08:02:33;3.40;;;1.85;;
57923;SDS011;43737;50.632;3.070;2022-08-19T08:04:59;2.28;;;1.60;;
57923;SDS011;43737;50.632;3.070;2022-08-19T08:07:44;4.40;;;1.60;;
57923;SDS011;43737;50.632;3.070;2022-08-19T08:10:28;3.78;;;1.48;;
57923;SDS011;43737;50.632;3.070;2022-08-19T08:12:54;5.25;;;1.20;;
57923;SDS011;43737;50.632;3.070;2022-08-19T08:15:20;1.60;;;1.10;;
57923;SDS011;43737;50.632;3.070;2022-08-19T08:17:46;2.67;;;0.90;;
57923;SDS011;43737;50.632;3.070;2022-08-19T08:20:13;3.53;;;1.05;;
57923;SDS011;43737;50.632;3.070;2022-08-19T08:22:42;4.18;;;1.17;;
57923;SDS011;43737;50.632;3.070;2022-08-19T08:25:27;2.63;;;1.10;;
57923;SDS011;43737;50.632;3.070;2022-08-19T08:27:54;1.17;;;0.70;;
57923;SDS011;43737;50.632;3.070;2022-08-19T08:30:22;3.10;;;1.00;;
57923;SDS011;43737;50.632;3.070;2022-08-19T08:32:49;2.08;;;1.13;;
57923;SDS011;43737;50.632;3.070;2022-08-19T08:35:16;2.53;;;1.05;;
57923;SDS011;43737;50.632;3.070;2022-08-19T08:37:43;2.50;;;0.88;;
57923;SDS011;43737;50.632;3.070;2022-08-19T08:42:35;1.20;;;0.90;;
57923;SDS011;43737;50.632;3.070;2022-08-19T08:45:14;0.88;;;0.73;;
57923;SDS011;43737;50.632;3.070;2022-08-19T08:47:43;2.92;;;0.90;;
57923;SDS011;43737;50.632;3.070;2022-08-19T08:52:48;1.45;;;0.50;;
57923;SDS011;43737;50.632;3.070;2022-08-19T08:55:18;0.70;;;0.70;;
57923;SDS011;43737;50.632;3.070;2022-08-19T08:57:51;2.75;;;0.75;;
57923;SDS011;43737;50.632;3.070;2022-08-19T09:02:52;1.08;;;0.60;;
57923;SDS011;43737;50.632;3.070;2022-08-19T09:05:19;2.85;;;0.77;;
57923;SDS011;43737;50.632;3.070;2022-08-19T09:10:17;3.78;;;0.80;;
57923;SDS011;43737;50.632;3.070;2022-08-19T09:15:18;3.45;;;1.02;;
57923;SDS011;43737;50.632;3.070;2022-08-19T09:17:48;0.75;;;0.75;;
57923;SDS011;43737;50.632;3.070;2022-08-19T09:22:41;2.30;;;0.80;;
57923;SDS011;43737;50.632;3.070;2022-08-19T09:25:12;8.15;;;0.88;;
57923;SDS011;43737;50.632;3.070;2022-08-19T09:27:39;1.55;;;0.77;;
57923;SDS011;43737;50.632;3.070;2022-08-19T09:30:06;0.60;;;0.57;;
57923;SDS011;43737;50.632;3.070;2022-08-19T09:32:32;1.75;;;0.65;;
57923;SDS011;43737;50.632;3.070;2022-08-19T09:34:58;2.22;;;0.90;;
57923;SDS011;43737;50.632;3.070;2022-08-19T09:37:25;1.20;;;0.60;;
57923;SDS011;43737;50.632;3.070;2022-08-19T09:39:51;1.35;;;0.80;;
57923;SDS011;43737;50.632;3.070;2022-08-19T09:42:17;1.92;;;0.60;;
57923;SDS011;43737;50.632;3.070;2022-08-19T09:44:43;1.40;;;0.90;;
57923;SDS011;43737;50.632;3.070;2022-08-19T09:47:10;0.85;;;0.80;;
57923;SDS011;43737;50.632;3.070;2022-08-19T09:49:36;1.65;;;1.05;;
57923;SDS011;43737;50.632;3.070;2022-08-19T09:52:04;2.90;;;0.80;;
57923;SDS011;43737;50.632;3.070;2022-08-19T09:54:30;3.20;;;1.48;;
57923;SDS011;43737;50.632;3.070;2022-08-19T09:56:57;3.00;;;1.30;;
57923;SDS011;43737;50.632;3.070;2022-08-19T09:59:25;4.35;;;1.38;;
57923;SDS011;43737;50.632;3.070;2022-08-19T10:01:51;2.92;;;1.52;;
57923;SDS011;43737;50.632;3.070;2022-08-19T10:04:17;3.15;;;0.90;;
57923;SDS011;43737;50.632;3.070;2022-08-19T10:06:43;3.45;;;1.42;;
57923;SDS011;43737;50.632;3.070;2022-08-19T10:09:10;3.13;;;1.20;;
57923;SDS011;43737;50.632;3.070;2022-08-19T10:11:38;2.53;;;1.30;;
57923;SDS011;43737;50.632;3.070;2022-08-19T10:14:05;2.35;;;1.13;;
57923;SDS011;43737;50.632;3.070;2022-08-19T10:16:31;2.03;;;1.02;;
57923;SDS011;43737;50.632;3.070;2022-08-19T10:18:57;4.28;;;1.45;;
57923;SDS011;43737;50.632;3.070;2022-08-19T10:21:28;1.83;;;1.17;;
57923;SDS011;43737;50.632;3.070;2022-08-19T10:23:56;3.38;;;1.40;;
57923;SDS011;43737;50.632;3.070;2022-08-19T10:26:26;4.57;;;1.60;;
57923;SDS011;43737;50.632;3.070;2022-08-19T10:28:53;4.53;;;1.80;;
57923;SDS011;43737;50.632;3.070;2022-08-19T10:31:21;4.40;;;1.75;;
57923;SDS011;43737;50.632;3.070;2022-08-19T10:33:48;5.60;;;1.88;;
57923;SDS011;43737;50.632;3.070;2022-08-19T10:36:17;4.28;;;1.95;;
57923;SDS011;43737;50.632;3.070;2022-08-19T10:38:44;6.30;;;2.33;;
57923;SDS011;43737;50.632;3.070;2022-08-19T10:41:11;4.07;;;1.80;;
57923;SDS011;43737;50.632;3.070;2022-08-19T10:43:38;5.13;;;1.65;;
57923;SDS011;43737;50.632;3.070;2022-08-19T10:46:09;3.17;;;1.38;;
57923;SDS011;43737;50.632;3.070;2022-08-19T10:48:35;5.28;;;2.38;;
57923;SDS011;43737;50.632;3.070;2022-08-19T10:51:01;5.97;;;1.38;;
57923;SDS011;43737;50.632;3.070;2022-08-19T10:53:46;2.88;;;1.30;;
57923;SDS011;43737;50.632;3.070;2022-08-19T10:56:12;3.45;;;1.40;;
57923;SDS011;43737;50.632;3.070;2022-08-19T10:58:57;4.07;;;1.70;;
57923;SDS011;43737;50.632;3.070;2022-08-19T11:01:23;2.40;;;1.38;;
57923;SDS011;43737;50.632;3.070;2022-08-19T11:03:49;3.05;;;1.40;;
57923;SDS011;43737;50.632;3.070;2022-08-19T11:06:15;2.08;;;1.30;;
57923;SDS011;43737;50.632;3.070;2022-08-19T11:08:41;5.85;;;2.15;;
57923;SDS011;43737;50.632;3.070;2022-08-19T11:11:09;4.97;;;1.45;;
57923;SDS011;43737;50.632;3.070;2022-08-19T11:13:37;2.42;;;1.30;;
57923;SDS011;43737;50.632;3.070;2022-08-19T11:18:31;2.92;;;1.35;;
57923;SDS011;43737;50.632;3.070;2022-08-19T11:21:07;3.85;;;1.30;;
57923;SDS011;43737;50.632;3.070;2022-08-19T11:23:33;4.47;;;1.80;;
57923;SDS011;43737;50.632;3.070;2022-08-19T11:25:59;4.82;;;2.20;;
57923;SDS011;43737;50.632;3.070;2022-08-19T11:28:26;2.25;;;1.58;;
57923;SDS011;43737;50.632;3.070;2022-08-19T11:30:53;3.92;;;1.70;;
57923;SDS011;43737;50.632;3.070;2022-08-19T11:33:19;3.40;;;1.33;;
57923;SDS011;43737;50.632;3.070;2022-08-19T11:35:45;5.82;;;1.70;;
57923;SDS011;43737;50.632;3.070;2022-08-19T11:38:11;2.33;;;1.20;;
57923;SDS011;43737;50.632;3.070;2022-08-19T11:40:39;2.40;;;1.40;;
57923;SDS011;43737;50.632;3.070;2022-08-19T11:43:07;5.68;;;1.63;;
57923;SDS011;43737;50.632;3.070;2022-08-19T11:45:33;2.58;;;1.30;;
57923;SDS011;43737;50.632;3.070;2022-08-19T11:47:59;4.30;;;1.58;;
57923;SDS011;43737;50.632;3.070;2022-08-19T11:50:25;2.88;;;1.58;;
57923;SDS011;43737;50.632;3.070;2022-08-19T11:52:55;4.88;;;2.00;;
57923;SDS011;43737;50.632;3.070;2022-08-19T11:55:22;4.38;;;1.85;;
57923;SDS011;43737;50.632;3.070;2022-08-19T11:57:48;3.65;;;1.92;;
57923;SDS011;43737;50.632;3.070;2022-08-19T12:00:14;5.68;;;1.80;;
57923;SDS011;43737;50.632;3.070;2022-08-19T12:02:40;3.38;;;1.60;;
57923;SDS011;43737;50.632;3.070;2022-08-19T12:05:07;3.97;;;1.58;;
57923;SDS011;43737;50.632;3.070;2022-08-19T12:07:33;3.22;;;1.80;;
57923;SDS011;43737;50.632;3.070;2022-08-19T12:10:00;4.13;;;1.60;;
57923;SDS011;43737;50.632;3.070;2022-08-19T12:12:26;3.88;;;1.75;;
57923;SDS011;43737;50.632;3.070;2022-08-19T12:14:52;2.88;;;1.40;;
57923;SDS011;43737;50.632;3.070;2022-08-19T12:17:30;3.95;;;1.45;;
57923;SDS011;43737;50.632;3.070;2022-08-19T12:19:56;3.08;;;1.55;;
57923;SDS011;43737;50.632;3.070;2022-08-19T12:22:22;3.60;;;1.73;;
57923;SDS011;43737;50.632;3.070;2022-08-19T12:24:48;5.85;;;1.73;;
57923;SDS011;43737;50.632;3.070;2022-08-19T12:27:17;3.38;;;1.52;;
57923;SDS011;43737;50.632;3.070;2022-08-19T12:29:43;5.97;;;1.48;;
57923;SDS011;43737;50.632;3.070;2022-08-19T12:32:09;4.35;;;1.20;;
57923;SDS011;43737;50.632;3.070;2022-08-19T12:34:35;6.47;;;1.10;;
57923;SDS011;43737;50.632;3.070;2022-08-19T12:37:02;1.55;;;1.00;;
57923;SDS011;43737;50.632;3.070;2022-08-19T12:39:29;1.90;;;1.00;;
57923;SDS011;43737;50.632;3.070;2022-08-19T12:41:56;4.22;;;1.45;;
57923;SDS011;43737;50.632;3.070;2022-08-19T12:44:23;4.05;;;1.50;;
57923;SDS011;43737;50.632;3.070;2022-08-19T12:46:49;7.65;;;1.95;;
57923;SDS011;43737;50.632;3.070;2022-08-19T12:49:15;2.45;;;1.20;;
57923;SDS011;43737;50.632;3.070;2022-08-19T12:51:41;4.82;;;1.58;;
57923;SDS011;43737;50.632;3.070;2022-08-19T12:54:07;2.17;;;1.02;;
57923;SDS011;43737;50.632;3.070;2022-08-19T12:56:33;3.40;;;1.23;;
57923;SDS011;43737;50.632;3.070;2022-08-19T12:59:03;3.22;;;0.80;;
57923;SDS011;43737;50.632;3.070;2022-08-19T13:01:29;2.88;;;1.10;;
57923;SDS011;43737;50.632;3.070;2022-08-19T13:03:57;1.58;;;0.80;;
57923;SDS011;43737;50.632;3.070;2022-08-19T13:06:24;1.60;;;1.05;;
57923;SDS011;43737;50.632;3.070;2022-08-19T13:08:50;3.40;;;1.13;;
57923;SDS011;43737;50.632;3.070;2022-08-19T13:11:17;1.95;;;0.80;;
57923;SDS011;43737;50.632;3.070;2022-08-19T13:13:45;1.25;;;0.65;;
57923;SDS011;43737;50.632;3.070;2022-08-19T13:16:12;1.83;;;0.85;;
57923;SDS011;43737;50.632;3.070;2022-08-19T13:18:39;1.77;;;0.95;;
57923;SDS011;43737;50.632;3.070;2022-08-19T13:21:06;1.40;;;0.90;;
57923;SDS011;43737;50.632;3.070;2022-08-19T13:23:33;0.40;;;0.40;;
57923;SDS011;43737;50.632;3.070;2022-08-19T13:25:59;1.55;;;0.80;;
57923;SDS011;43737;50.632;3.070;2022-08-19T13:28:27;2.00;;;1.25;;
57923;SDS011;43737;50.632;3.070;2022-08-19T13:31:14;2.08;;;0.90;;
57923;SDS011;43737;50.632;3.070;2022-08-19T13:33:59;2.40;;;1.05;;
57923;SDS011;43737;50.632;3.070;2022-08-19T13:36:25;0.70;;;0.60;;
57923;SDS011;43737;50.632;3.070;2022-08-19T13:38:51;1.63;;;1.10;;
57923;SDS011;43737;50.632;3.070;2022-08-19T13:41:17;1.27;;;0.90;;
57923;SDS011;43737;50.632;3.070;2022-08-19T13:43:44;0.68;;;0.68;;
57923;SDS011;43737;50.632;3.070;2022-08-19T13:46:11;1.80;;;1.00;;
57923;SDS011;43737;50.632;3.070;2022-08-19T13:48:40;1.27;;;0.60;;
57923;SDS011;43737;50.632;3.070;2022-08-19T13:51:06;0.85;;;0.80;;
57923;SDS011;43737;50.632;3.070;2022-08-19T13:53:35;2.15;;;0.80;;
57923;SDS011;43737;50.632;3.070;2022-08-19T13:56:06;2.42;;;1.20;;
57923;SDS011;43737;50.632;3.070;2022-08-19T13:58:32;2.38;;;1.00;;
57923;SDS011;43737;50.632;3.070;2022-08-19T14:00:58;2.38;;;1.00;;
57923;SDS011;43737;50.632;3.070;2022-08-19T14:03:25;3.45;;;0.90;;
57923;SDS011;43737;50.632;3.070;2022-08-19T14:05:51;2.30;;;1.27;;
57923;SDS011;43737;50.632;3.070;2022-08-19T14:08:17;2.20;;;1.30;;
57923;SDS011;43737;50.632;3.070;2022-08-19T14:10:43;2.25;;;1.98;;
57923;SDS011;43737;50.632;3.070;2022-08-19T14:13:10;2.22;;;1.10;;
57923;SDS011;43737;50.632;3.070;2022-08-19T14:15:38;1.75;;;1.10;;
57923;SDS011;43737;50.632;3.070;2022-08-19T14:18:05;2.80;;;1.00;;
57923;SDS011;43737;50.632;3.070;2022-08-19T14:20:33;1.15;;;0.88;;
57923;SDS011;43737;50.632;3.070;2022-08-19T14:22:59;1.58;;;0.90;;
57923;SDS011;43737;50.632;3.070;2022-08-19T14:25:27;1.65;;;1.08;;
57923;SDS011;43737;50.632;3.070;2022-08-19T14:27:53;2.97;;;1.35;;
57923;SDS011;43737;50.632;3.070;2022-08-19T14:30:24;2.80;;;0.70;;
57923;SDS011;43737;50.632;3.070;2022-08-19T14:32:53;2.05;;;0.80;;
57923;SDS011;43737;50.632;3.070;2022-08-19T14:35:20;2.92;;;0.88;;
57923;SDS011;43737;50.632;3.070;2022-08-19T14:37:47;1.75;;;0.85;;
57923;SDS011;43737;50.632;3.070;2022-08-19T14:40:14;2.17;;;0.90;;
57923;SDS011;43737;50.632;3.070;2022-08-19T14:42:41;3.53;;;1.00;;
57923;SDS011;43737;50.632;3.070;2022-08-19T14:45:07;1.95;;;0.98;;
57923;SDS011;43737;50.632;3.070;2022-08-19T14:47:33;5.05;;;0.90;;
57923;SDS011;43737;50.632;3.070;2022-08-19T14:49:59;2.15;;;0.85;;
57923;SDS011;43737;50.632;3.070;2022-08-19T14:52:25;2.75;;;1.15;;
57923;SDS011;43737;50.632;3.070;2022-08-19T14:54:51;1.48;;;1.00;;
57923;SDS011;43737;50.632;3.070;2022-08-19T14:57:17;3.40;;;0.93;;